createdAt,value
2022-10-26T00:00:48.377Z,98364.72
2022-10-26T00:03:54.057Z,98357.88
2022-10-26T00:06:59.684Z,98352.56
2022-10-26T00:10:05.426Z,98361.47
2022-10-26T00:13:16.002Z,98359.88
2022-10-26T00:16:32.189Z,98359.38
2022-10-26T00:19:38.386Z,98359.50
2022-10-26T00:22:44.668Z,98357.94
2022-10-26T00:25:58.420Z,98360.38
2022-10-26T00:29:03.950Z,98355.84
2022-10-26T00:32:12.199Z,98353.84
2022-10-26T00:35:23.275Z,98349.88
2022-10-26T00:38:37.881Z,98354.63
2022-10-26T00:41:43.842Z,98350.13
2022-10-26T00:45:07.448Z,98358.69
2022-10-26T00:48:26.344Z,98356.63
2022-10-26T00:51:39.264Z,98366.38
2022-10-26T00:54:49.172Z,98362.41
2022-10-26T00:57:57.744Z,98356.72
2022-10-26T01:01:03.491Z,98352.44
2022-10-26T01:04:11.896Z,98361.41
2022-10-26T01:07:19.018Z,98358.69
2022-10-26T01:10:25.472Z,98367.81
2022-10-26T01:13:37.097Z,98360.66
2022-10-26T01:17:04.572Z,98359.16
2022-10-26T01:20:56.747Z,98360.91
2022-10-26T01:24:51.549Z,98363.41
2022-10-26T01:27:57.981Z,98357.19
2022-10-26T01:31:14.942Z,98359.44
2022-10-26T01:34:32.546Z,98354.69
2022-10-26T01:37:49.319Z,98348.13
2022-10-26T01:41:06.958Z,98351.72
2022-10-26T01:44:22.623Z,98349.59
2022-10-26T01:47:37.276Z,98354.44
2022-10-26T01:50:46.989Z,98350.34
2022-10-26T01:53:52.710Z,98349.13
2022-10-26T01:57:07.053Z,98364.88
2022-10-26T02:00:16.922Z,98349.88
2022-10-26T02:03:45.989Z,98361.66
2022-10-26T02:07:06.408Z,98352.78
2022-10-26T02:10:34.196Z,98360.72
2022-10-26T02:13:56.276Z,98360.19
2022-10-26T02:17:14.547Z,98362.50
2022-10-26T02:20:32.022Z,98366.84
2022-10-26T02:23:44.511Z,98359.75
2022-10-26T02:26:56.856Z,98354.19
2022-10-26T02:30:07.862Z,98353.00
2022-10-26T02:33:18.236Z,98362.41
2022-10-26T02:36:33.769Z,98366.63
2022-10-26T02:39:44.712Z,98370.03
2022-10-26T02:42:55.100Z,98364.22
2022-10-26T02:46:24.446Z,98368.38
2022-10-26T02:49:37.499Z,98364.22
2022-10-26T02:53:02.414Z,98361.03
2022-10-26T02:56:19.755Z,98361.94
2022-10-26T02:59:38.285Z,98364.81
2022-10-26T03:02:48.631Z,98369.56
2022-10-26T03:05:54.871Z,98364.13
2022-10-26T03:09:04.913Z,98361.28
2022-10-26T03:12:10.670Z,98363.66
2022-10-26T03:15:16.840Z,98373.84
2022-10-26T03:18:22.455Z,98373.16
2022-10-26T03:21:28.956Z,98374.19
2022-10-26T03:24:37.223Z,98367.59
2022-10-26T03:27:42.929Z,98376.25
2022-10-26T03:30:48.512Z,98376.13
2022-10-26T03:33:54.240Z,98370.81
2022-10-26T03:36:59.870Z,98375.06
2022-10-26T03:40:09.863Z,98377.66
2022-10-26T03:43:15.545Z,98365.66
2022-10-26T03:46:21.236Z,98379.81
2022-10-26T03:49:27.012Z,98380.25
2022-10-26T03:52:32.549Z,98372.63
2022-10-26T03:55:41.252Z,98375.66
2022-10-26T03:58:46.899Z,98372.34
2022-10-26T04:01:55.381Z,98376.50
2022-10-26T04:05:03.462Z,98374.75
2022-10-26T04:08:09.257Z,98381.63
2022-10-26T04:11:17.505Z,98385.66
2022-10-26T04:14:23.140Z,98391.69
2022-10-26T04:17:28.953Z,98391.22
2022-10-26T04:20:39.246Z,98394.22
2022-10-26T04:23:46.194Z,98392.81
2022-10-26T04:26:54.380Z,98400.75
2022-10-26T04:30:06.488Z,98394.72
2022-10-26T04:33:18.103Z,98383.38
2022-10-26T04:36:23.724Z,98394.53
2022-10-26T04:39:29.323Z,98393.19
2022-10-26T04:42:44.512Z,98394.94
2022-10-26T04:45:50.181Z,98392.13
2022-10-26T04:48:58.220Z,98383.59
2022-10-26T04:52:03.878Z,98394.88
2022-10-26T04:55:11.494Z,98379.81
2022-10-26T04:58:25.022Z,98387.81
2022-10-26T05:01:30.800Z,98395.19
2022-10-26T05:04:39.682Z,98389.06
2022-10-26T05:07:46.086Z,98392.56
2022-10-26T05:10:52.871Z,98379.41
2022-10-26T05:14:02.957Z,98384.25
2022-10-26T05:17:08.742Z,98384.50
2022-10-26T05:20:15.461Z,98387.38
2022-10-26T05:23:21.300Z,98389.72
2022-10-26T05:26:27.900Z,98386.53
2022-10-26T05:29:36.200Z,98392.81
2022-10-26T05:32:41.916Z,98398.78
2022-10-26T05:35:47.829Z,98392.50
2022-10-26T05:38:53.572Z,98407.66
2022-10-26T05:41:59.874Z,98397.50
2022-10-26T05:45:09.616Z,98395.19
2022-10-26T05:48:16.322Z,98405.34
2022-10-26T05:51:21.968Z,98409.47
2022-10-26T05:54:27.582Z,98407.78
2022-10-26T05:57:34.251Z,98402.16
2022-10-26T06:01:03.383Z,98413.97
2022-10-26T06:04:36.267Z,98408.16
2022-10-26T06:07:42.895Z,98411.63
2022-10-26T06:10:51.996Z,98424.09
2022-10-26T06:14:00.515Z,98420.13
2022-10-26T06:17:43.035Z,98431.44
2022-10-26T06:21:13.563Z,98428.41
2022-10-26T06:24:37.226Z,98433.16
2022-10-26T06:27:59.740Z,98436.59
2022-10-26T06:31:06.282Z,98435.53
2022-10-26T06:34:28.958Z,98437.84
2022-10-26T06:37:36.542Z,98444.66
2022-10-26T06:40:46.969Z,98448.50
2022-10-26T06:43:59.663Z,98457.41
2022-10-26T06:47:18.631Z,98447.03
2022-10-26T06:50:42.618Z,98454.22
2022-10-26T06:54:04.883Z,98461.34
2022-10-26T06:57:15.936Z,98455.25
2022-10-26T07:00:29.912Z,98458.06
2022-10-26T07:03:35.546Z,98455.41
2022-10-26T07:06:46.254Z,98452.91
2022-10-26T07:09:53.406Z,98460.09
2022-10-26T07:12:59.082Z,98455.78
2022-10-26T07:16:11.492Z,98459.22
2022-10-26T07:19:21.861Z,98469.91
2022-10-26T07:22:30.190Z,98466.47
2022-10-26T07:25:40.665Z,98470.00
2022-10-26T07:28:49.280Z,98473.31
2022-10-26T07:31:56.437Z,98465.81
2022-10-26T07:35:14.576Z,98474.66
2022-10-26T07:38:23.099Z,98462.03
2022-10-26T07:41:31.859Z,98472.31
2022-10-26T07:44:40.502Z,98472.81
2022-10-26T07:47:46.466Z,98474.53
2022-10-26T07:50:52.334Z,98476.50
2022-10-26T07:54:00.585Z,98475.31
2022-10-26T07:57:06.465Z,98479.53
2022-10-26T08:00:14.533Z,98476.00
2022-10-26T08:03:20.605Z,98476.38
2022-10-26T08:06:27.546Z,98481.81
2022-10-26T08:09:36.024Z,98478.03
2022-10-26T08:12:42.051Z,98486.63
2022-10-26T08:15:48.662Z,98488.75
2022-10-26T08:18:55.306Z,98480.59
2022-10-26T08:22:01.094Z,98487.34
2022-10-26T08:25:23.910Z,98474.28
2022-10-26T08:28:30.026Z,98480.34
2022-10-26T08:31:35.617Z,98474.81
2022-10-26T08:34:48.082Z,98475.69
2022-10-26T08:37:55.264Z,98477.63
2022-10-26T08:41:18.494Z,98479.94
2022-10-26T08:44:42.679Z,98474.19
2022-10-26T08:47:56.899Z,98469.69
2022-10-26T08:51:11.783Z,98471.41
2022-10-26T08:54:41.308Z,98480.44
2022-10-26T08:57:54.644Z,98472.53
2022-10-26T09:01:06.447Z,98478.16
2022-10-26T09:04:23.057Z,98472.56
2022-10-26T09:07:57.364Z,98468.69
2022-10-26T09:11:31.259Z,98472.91
2022-10-26T09:15:05.477Z,98463.47
2022-10-26T09:18:41.634Z,98476.25
2022-10-26T09:22:04.291Z,98475.50
2022-10-26T09:25:23.154Z,98482.84
2022-10-26T09:28:35.953Z,98476.44
2022-10-26T09:31:51.080Z,98483.44
2022-10-26T09:35:15.369Z,98483.38
2022-10-26T09:38:32.533Z,98488.59
2022-10-26T09:41:47.220Z,98488.63
2022-10-26T09:45:01.724Z,98486.06
2022-10-26T09:48:25.847Z,98497.50
2022-10-26T09:51:31.601Z,98503.94
2022-10-26T09:54:37.711Z,98495.19
2022-10-26T09:57:48.659Z,98493.13
2022-10-26T10:00:56.987Z,98497.56
2022-10-26T10:04:23.227Z,98488.25
2022-10-26T10:07:29.443Z,98484.47
2022-10-26T10:10:35.198Z,98483.81
2022-10-26T10:13:44.605Z,98479.03
2022-10-26T10:16:59.065Z,98487.28
2022-10-26T10:20:22.695Z,98488.13
2022-10-26T10:23:35.590Z,98483.44
2022-10-26T10:27:01.479Z,98480.09
2022-10-26T10:30:27.068Z,98486.88
2022-10-26T10:33:41.725Z,98486.09
2022-10-26T10:36:49.917Z,98487.97
2022-10-26T10:40:02.481Z,98492.00
2022-10-26T10:43:17.431Z,98488.47
2022-10-26T10:46:29.511Z,98486.97
2022-10-26T10:49:37.231Z,98494.50
2022-10-26T10:52:46.422Z,98483.66
2022-10-26T10:56:11.584Z,98495.66
2022-10-26T11:00:04.395Z,98488.25
2022-10-26T11:03:49.992Z,98483.88
2022-10-26T11:07:02.545Z,98486.94
2022-10-26T11:10:22.670Z,98482.25
2022-10-26T11:13:38.837Z,98489.75
2022-10-26T11:16:52.043Z,98490.78
2022-10-26T11:20:12.487Z,98491.88
2022-10-26T11:23:33.443Z,98489.50
2022-10-26T11:26:52.799Z,98486.28
2022-10-26T11:30:08.949Z,98491.03
2022-10-26T11:33:26.335Z,98482.88
2022-10-26T11:36:39.063Z,98479.38
2022-10-26T11:39:56.279Z,98479.56
2022-10-26T11:43:18.826Z,98481.81
2022-10-26T11:46:37.373Z,98479.16
2022-10-26T11:49:56.875Z,98488.19
2022-10-26T11:53:15.677Z,98482.09
2022-10-26T11:56:41.140Z,98483.28
2022-10-26T11:59:57.537Z,98472.13
2022-10-26T12:03:14.915Z,98475.63
2022-10-26T12:06:28.579Z,98469.47
2022-10-26T12:09:41.912Z,98477.53
2022-10-26T12:13:07.769Z,98487.63
2022-10-26T12:16:36.153Z,98488.81
2022-10-26T12:19:53.531Z,98483.22
2022-10-26T12:23:00.087Z,98479.16
2022-10-26T12:26:53.382Z,98485.53
2022-10-26T12:30:36.937Z,98495.13
2022-10-26T12:33:55.431Z,98486.78
2022-10-26T12:37:32.838Z,98487.81
2022-10-26T12:40:46.163Z,98485.41
2022-10-26T12:43:52.291Z,98490.31
2022-10-26T12:46:57.892Z,98483.34
2022-10-26T12:50:26.729Z,98487.06
2022-10-26T12:53:32.864Z,98486.03
2022-10-26T12:56:54.057Z,98475.97
2022-10-26T13:00:08.160Z,98488.66
2022-10-26T13:03:35.687Z,98473.03
2022-10-26T13:07:09.436Z,98476.50
2022-10-26T13:10:27.603Z,98469.88
2022-10-26T13:13:37.034Z,98477.72
2022-10-26T13:16:50.081Z,98466.44
2022-10-26T13:20:03.538Z,98474.22
2022-10-26T13:23:29.911Z,98471.47
2022-10-26T13:27:11.175Z,98468.97
2022-10-26T13:30:53.799Z,98474.88
2022-10-26T13:34:05.462Z,98474.13
2022-10-26T13:37:27.429Z,98471.00
2022-10-26T13:40:39.623Z,98477.19
2022-10-26T13:43:49.170Z,98482.97
2022-10-26T13:47:04.881Z,98478.31
2022-10-26T13:50:22.595Z,98484.81
2022-10-26T13:53:43.026Z,98474.75
2022-10-26T13:57:08.724Z,98487.41
2022-10-26T14:00:24.222Z,98483.59
2022-10-26T14:03:30.383Z,98488.88
2022-10-26T14:06:43.232Z,98490.53
2022-10-26T14:09:57.907Z,98483.94
2022-10-26T14:13:15.185Z,98490.88
2022-10-26T14:16:31.537Z,98489.59
2022-10-26T14:19:42.759Z,98492.06
2022-10-26T14:22:51.376Z,98492.63
2022-10-26T14:25:59.418Z,98486.84
2022-10-26T14:29:17.718Z,98490.41
2022-10-26T14:32:25.465Z,98493.78
2022-10-26T14:35:42.233Z,98492.06
2022-10-26T14:38:59.823Z,98489.75
2022-10-26T14:42:29.220Z,98490.03
2022-10-26T14:45:48.431Z,98493.63
2022-10-26T14:48:59.614Z,98501.88
2022-10-26T14:52:10.230Z,98505.69
2022-10-26T14:55:19.974Z,98503.63
2022-10-26T14:58:32.299Z,98505.13
2022-10-26T15:01:56.302Z,98502.13
2022-10-26T15:05:05.321Z,98505.25
2022-10-26T15:08:57.057Z,98512.78
2022-10-26T15:12:05.926Z,98506.34
2022-10-26T15:15:24.223Z,98519.66
2022-10-26T15:18:40.094Z,98519.25
2022-10-26T15:21:51.596Z,98511.41
2022-10-26T15:25:06.640Z,98517.22
2022-10-26T15:28:14.693Z,98525.97
2022-10-26T15:31:36.189Z,98525.16
2022-10-26T15:34:44.495Z,98523.13
2022-10-26T15:37:51.146Z,98523.50
2022-10-26T15:40:59.157Z,98519.22
2022-10-26T15:44:10.223Z,98521.06
2022-10-26T15:47:24.803Z,98524.59
2022-10-26T15:50:35.586Z,98532.25
2022-10-26T15:53:43.787Z,98532.22
2022-10-26T15:56:49.479Z,98534.13
2022-10-26T15:59:55.141Z,98543.22
2022-10-26T16:03:00.828Z,98543.63
2022-10-26T16:06:21.628Z,98550.81
2022-10-26T16:09:27.202Z,98551.41
2022-10-26T16:12:39.571Z,98545.88
2022-10-26T16:15:46.550Z,98550.44
2022-10-26T16:19:18.420Z,98554.34
2022-10-26T16:22:27.658Z,98547.31
2022-10-26T16:25:33.219Z,98548.84
2022-10-26T16:28:40.169Z,98558.78
2022-10-26T16:31:46.154Z,98555.28
2022-10-26T16:34:51.803Z,98562.78
2022-10-26T16:38:00.071Z,98563.41
2022-10-26T16:41:14.052Z,98561.25
2022-10-26T16:44:19.781Z,98551.94
2022-10-26T16:47:25.538Z,98556.88
2022-10-26T16:50:35.503Z,98559.78
2022-10-26T16:53:49.221Z,98564.78
2022-10-26T16:56:55.999Z,98576.41
2022-10-26T17:00:01.778Z,98581.00
2022-10-26T17:03:07.921Z,98585.97
2022-10-26T17:06:14.597Z,98579.03
2022-10-26T17:09:28.869Z,98586.19
2022-10-26T17:12:43.254Z,98588.75
2022-10-26T17:15:49.394Z,98593.66
2022-10-26T17:18:56.865Z,98599.81
2022-10-26T17:22:08.979Z,98609.97
2022-10-26T17:25:19.431Z,98610.25
2022-10-26T17:28:25.181Z,98601.88
2022-10-26T17:31:31.205Z,98609.69
2022-10-26T17:34:37.259Z,98610.50
2022-10-26T17:37:42.946Z,98614.13
2022-10-26T17:40:53.917Z,98612.66
2022-10-26T17:43:59.896Z,98625.00
2022-10-26T17:47:05.757Z,98622.69
2022-10-26T17:50:13.193Z,98623.34
2022-10-26T17:53:19.640Z,98628.38
2022-10-26T17:56:30.746Z,98631.34
2022-10-26T17:59:36.583Z,98631.44
2022-10-26T18:02:42.613Z,98636.34
2022-10-26T18:05:56.275Z,98635.97
2022-10-26T18:09:02.300Z,98642.13
2022-10-26T18:12:10.943Z,98646.94
2022-10-26T18:15:17.043Z,98653.09
2022-10-26T18:18:22.830Z,98653.44
2022-10-26T18:21:29.109Z,98659.00
2022-10-26T18:24:34.843Z,98658.78
2022-10-26T18:27:43.135Z,98659.00
2022-10-26T18:30:49.015Z,98663.59
2022-10-26T18:33:59.272Z,98661.09
2022-10-26T18:37:04.952Z,98663.56
2022-10-26T18:40:12.845Z,98662.81
2022-10-26T18:43:21.183Z,98675.00
2022-10-26T18:46:30.234Z,98679.31
2022-10-26T18:49:36.085Z,98682.47
2022-10-26T18:52:41.853Z,98678.41
2022-10-26T18:55:47.596Z,98679.44
2022-10-26T18:59:00.562Z,98683.47
2022-10-26T19:05:32.083Z,98675.19
2022-10-26T19:08:37.756Z,98687.00
2022-10-26T19:11:44.524Z,98692.44
2022-10-26T19:14:52.718Z,98692.88
2022-10-26T19:17:59.914Z,98692.66
2022-10-26T19:21:10.079Z,98700.81
2022-10-26T19:24:19.512Z,98697.22
2022-10-26T19:27:25.311Z,98697.03
2022-10-26T19:30:33.508Z,98708.56
2022-10-26T19:33:39.777Z,98703.88
2022-10-26T19:36:47.388Z,98713.22
2022-10-26T19:39:53.265Z,98719.25
2022-10-26T19:42:58.824Z,98709.03
2022-10-26T19:46:16.744Z,98716.72
2022-10-26T19:49:25.021Z,98725.06
2022-10-26T19:52:30.594Z,98724.09
2022-10-26T19:55:36.343Z,98725.22
2022-10-26T19:58:43.507Z,98728.56
2022-10-26T20:01:53.929Z,98728.88
2022-10-26T20:04:59.659Z,98732.09
2022-10-26T20:08:05.786Z,98743.31
2022-10-26T20:11:15.762Z,98746.59
2022-10-26T20:14:21.764Z,98752.16
2022-10-26T20:17:29.982Z,98749.00
2022-10-26T20:20:38.295Z,98743.00
2022-10-26T20:23:46.061Z,98748.53
2022-10-26T20:26:51.785Z,98749.41
2022-10-26T20:29:57.400Z,98753.75
2022-10-26T20:33:09.729Z,98760.78
2022-10-26T20:36:15.271Z,98763.75
2022-10-26T20:39:29.083Z,98752.59
2022-10-26T20:42:35.945Z,98760.47
2022-10-26T20:45:42.515Z,98752.78
2022-10-26T20:48:52.164Z,98754.44
2022-10-26T20:52:20.583Z,98752.63
2022-10-26T20:55:37.874Z,98761.78
2022-10-26T20:58:48.659Z,98761.09
2022-10-26T21:01:54.513Z,98758.28
2022-10-26T21:05:03.027Z,98765.78
2022-10-26T21:08:08.633Z,98759.09
2022-10-26T21:11:14.339Z,98772.09
2022-10-26T21:14:19.867Z,98767.63
2022-10-26T21:17:26.136Z,98774.75
2022-10-26T21:20:34.424Z,98778.28
2022-10-26T21:23:43.399Z,98783.78
2022-10-26T21:26:49.058Z,98783.44
2022-10-26T21:29:54.827Z,98778.13
2022-10-26T21:33:00.436Z,98792.78
2022-10-26T21:36:12.472Z,98784.63
2022-10-26T21:39:18.385Z,98782.78
2022-10-26T21:42:24.101Z,98780.44
2022-10-26T21:45:29.745Z,98791.28
2022-10-26T21:48:37.656Z,98786.97
2022-10-26T21:51:59.591Z,98776.47
2022-10-26T21:55:09.995Z,98785.44
2022-10-26T21:58:21.483Z,98785.91
2022-10-26T22:01:27.177Z,98787.44
2022-10-26T22:04:39.963Z,98783.13
2022-10-26T22:07:53.223Z,98787.25
2022-10-26T22:11:10.572Z,98780.59
2022-10-26T22:14:23.812Z,98786.09
2022-10-26T22:17:29.434Z,98780.13
2022-10-26T22:20:35.057Z,98788.09
2022-10-26T22:23:46.141Z,98788.25
2022-10-26T22:26:52.061Z,98786.41
2022-10-26T22:29:57.893Z,98785.22
2022-10-26T22:33:03.500Z,98794.38
2022-10-26T22:36:12.037Z,98796.72
2022-10-26T22:39:20.705Z,98799.72
2022-10-26T22:42:26.562Z,98800.72
2022-10-26T22:45:32.322Z,98801.06
2022-10-26T22:48:38.840Z,98806.75
2022-10-26T22:51:44.510Z,98805.09
2022-10-26T22:54:52.758Z,98801.41
2022-10-26T22:57:58.414Z,98805.41
2022-10-26T23:01:08.860Z,98805.06
2022-10-26T23:04:15.729Z,98813.28
2022-10-26T23:07:27.989Z,98814.78
2022-10-26T23:10:39.517Z,98807.25
2022-10-26T23:13:45.880Z,98807.13
2022-10-26T23:16:51.542Z,98806.94
2022-10-26T23:20:17.531Z,98803.63
2022-10-26T23:23:23.106Z,98814.09
2022-10-26T23:26:31.337Z,98802.78
2022-10-26T23:29:49.077Z,98812.44
2022-10-26T23:32:54.867Z,98812.44
2022-10-26T23:36:08.010Z,98806.56
2022-10-26T23:39:14.512Z,98802.38
2022-10-26T23:42:22.873Z,98799.91
2022-10-26T23:45:28.759Z,98809.22
2022-10-26T23:48:34.645Z,98816.50
2022-10-26T23:51:40.260Z,98818.03
2022-10-26T23:54:45.922Z,98817.84
2022-10-26T23:57:54.196Z,98824.84
